sensor_id;sensor_type;location;lat;lon;timestamp;temperature;humidity
18126;DHT22;53956;52.442;13.284;2023-03-23T00:00:12;15.80;90.10
18126;DHT22;53956;52.442;13.284;2023-03-23T00:02:39;15.90;89.80
18126;DHT22;53956;52.442;13.284;2023-03-23T00:05:06;15.80;89.80
18126;DHT22;53956;52.442;13.284;2023-03-23T00:07:34;15.90;89.50
18126;DHT22;53956;52.442;13.284;2023-03-23T00:10:02;15.70;89.70
18126;DHT22;53956;52.442;13.284;2023-03-23T00:12:31;15.80;90.10
18126;DHT22;53956;52.442;13.284;2023-03-23T00:15:01;15.80;90.30
18126;DHT22;53956;52.442;13.284;2023-03-23T00:17:29;15.80;90.30
18126;DHT22;53956;52.442;13.284;2023-03-23T00:19:55;15.70;90.20
18126;DHT22;53956;52.442;13.284;2023-03-23T00:22:22;15.80;90.20
18126;DHT22;53956;52.442;13.284;2023-03-23T00:24:51;15.80;90.30
18126;DHT22;53956;52.442;13.284;2023-03-23T00:27:18;15.80;90.30
18126;DHT22;53956;52.442;13.284;2023-03-23T00:29:47;15.70;90.00
18126;DHT22;53956;52.442;13.284;2023-03-23T00:32:20;15.70;89.90
18126;DHT22;53956;52.442;13.284;2023-03-23T00:34:54;15.70;89.90
18126;DHT22;53956;52.442;13.284;2023-03-23T00:37:22;15.70;90.20
18126;DHT22;53956;52.442;13.284;2023-03-23T00:39:49;15.70;90.10
18126;DHT22;53956;52.442;13.284;2023-03-23T00:42:17;15.70;89.90
18126;DHT22;53956;52.442;13.284;2023-03-23T00:44:44;15.70;89.70
18126;DHT22;53956;52.442;13.284;2023-03-23T00:47:11;15.70;89.80
18126;DHT22;53956;52.442;13.284;2023-03-23T00:49:39;15.60;89.60
18126;DHT22;53956;52.442;13.284;2023-03-23T00:52:07;15.60;89.60
18126;DHT22;53956;52.442;13.284;2023-03-23T00:54:33;15.60;89.80
18126;DHT22;53956;52.442;13.284;2023-03-23T00:57:01;15.50;90.00
18126;DHT22;53956;52.442;13.284;2023-03-23T00:59:28;15.60;89.70
18126;DHT22;53956;52.442;13.284;2023-03-23T01:01:55;15.50;89.70
18126;DHT22;53956;52.442;13.284;2023-03-23T01:04:21;15.50;89.70
18126;DHT22;53956;52.442;13.284;2023-03-23T01:06:50;15.50;89.80
18126;DHT22;53956;52.442;13.284;2023-03-23T01:09:18;15.50;89.70
18126;DHT22;53956;52.442;13.284;2023-03-23T01:11:48;15.50;89.90
18126;DHT22;53956;52.442;13.284;2023-03-23T01:14:17;15.50;89.80
18126;DHT22;53956;52.442;13.284;2023-03-23T01:16:44;15.50;90.00
18126;DHT22;53956;52.442;13.284;2023-03-23T01:19:11;15.40;91.40
18126;DHT22;53956;52.442;13.284;2023-03-23T01:21:38;15.40;91.50
18126;DHT22;53956;52.442;13.284;2023-03-23T01:24:07;15.40;90.00
18126;DHT22;53956;52.442;13.284;2023-03-23T01:26:34;15.50;90.00
18126;DHT22;53956;52.442;13.284;2023-03-23T01:29:00;15.40;91.20
18126;DHT22;53956;52.442;13.284;2023-03-23T01:31:27;15.50;90.00
18126;DHT22;53956;52.442;13.284;2023-03-23T01:33:54;15.30;91.20
18126;DHT22;53956;52.442;13.284;2023-03-23T01:36:24;15.30;91.40
18126;DHT22;53956;52.442;13.284;2023-03-23T01:38:52;15.30;91.50
18126;DHT22;53956;52.442;13.284;2023-03-23T01:41:23;15.40;91.80
18126;DHT22;53956;52.442;13.284;2023-03-23T01:43:58;15.30;91.60
18126;DHT22;53956;52.442;13.284;2023-03-23T01:46:28;15.30;91.70
18126;DHT22;53956;52.442;13.284;2023-03-23T01:48:57;15.30;92.00
18126;DHT22;53956;52.442;13.284;2023-03-23T01:51:26;15.30;91.90
18126;DHT22;53956;52.442;13.284;2023-03-23T01:53:56;15.20;91.80
18126;DHT22;53956;52.442;13.284;2023-03-23T01:56:28;15.10;92.10
18126;DHT22;53956;52.442;13.284;2023-03-23T01:58:58;15.20;92.40
18126;DHT22;53956;52.442;13.284;2023-03-23T02:01:26;15.20;92.40
18126;DHT22;53956;52.442;13.284;2023-03-23T02:03:55;15.20;92.30
18126;DHT22;53956;52.442;13.284;2023-03-23T02:06:23;15.20;92.00
18126;DHT22;53956;52.442;13.284;2023-03-23T02:09:11;15.20;92.30
18126;DHT22;53956;52.442;13.284;2023-03-23T02:11:40;15.20;91.80
18126;DHT22;53956;52.442;13.284;2023-03-23T02:14:07;15.10;92.50
18126;DHT22;53956;52.442;13.284;2023-03-23T02:16:41;15.10;92.30
18126;DHT22;53956;52.442;13.284;2023-03-23T02:19:27;15.20;92.70
18126;DHT22;53956;52.442;13.284;2023-03-23T02:24:58;15.10;92.40
18126;DHT22;53956;52.442;13.284;2023-03-23T02:28:01;15.20;92.30
18126;DHT22;53956;52.442;13.284;2023-03-23T02:30:43;15.10;92.30
18126;DHT22;53956;52.442;13.284;2023-03-23T02:33:27;15.20;92.80
18126;DHT22;53956;52.442;13.284;2023-03-23T02:35:58;15.20;92.40
18126;DHT22;53956;52.442;13.284;2023-03-23T02:38:30;15.20;92.70
18126;DHT22;53956;52.442;13.284;2023-03-23T02:41:00;15.20;92.50
18126;DHT22;53956;52.442;13.284;2023-03-23T02:43:31;15.20;93.00
18126;DHT22;53956;52.442;13.284;2023-03-23T02:46:00;15.20;93.20
18126;DHT22;53956;52.442;13.284;2023-03-23T02:48:30;15.20;94.60
18126;DHT22;53956;52.442;13.284;2023-03-23T02:50:58;15.10;95.60
18126;DHT22;53956;52.442;13.284;2023-03-23T02:53:29;15.20;95.70
18126;DHT22;53956;52.442;13.284;2023-03-23T02:55:57;15.20;96.20
18126;DHT22;53956;52.442;13.284;2023-03-23T02:58:28;15.10;95.70
18126;DHT22;53956;52.442;13.284;2023-03-23T03:00:56;15.10;96.60
18126;DHT22;53956;52.442;13.284;2023-03-23T03:03:28;15.20;97.30
18126;DHT22;53956;52.442;13.284;2023-03-23T03:06:03;15.10;97.60
18126;DHT22;53956;52.442;13.284;2023-03-23T03:08:35;15.20;96.20
18126;DHT22;53956;52.442;13.284;2023-03-23T03:11:07;15.20;96.50
18126;DHT22;53956;52.442;13.284;2023-03-23T03:13:44;15.20;96.90
18126;DHT22;53956;52.442;13.284;2023-03-23T03:16:22;15.20;96.20
18126;DHT22;53956;52.442;13.284;2023-03-23T03:18:54;15.20;95.90
18126;DHT22;53956;52.442;13.284;2023-03-23T03:21:24;15.20;96.00
18126;DHT22;53956;52.442;13.284;2023-03-23T03:23:55;15.20;96.40
18126;DHT22;53956;52.442;13.284;2023-03-23T03:26:24;15.20;96.50
18126;DHT22;53956;52.442;13.284;2023-03-23T03:28:57;15.10;96.80
18126;DHT22;53956;52.442;13.284;2023-03-23T03:31:28;15.20;97.40
18126;DHT22;53956;52.442;13.284;2023-03-23T03:33:56;15.20;97.50
18126;DHT22;53956;52.442;13.284;2023-03-23T03:36:27;15.20;97.20
18126;DHT22;53956;52.442;13.284;2023-03-23T03:39:03;15.20;96.80
18126;DHT22;53956;52.442;13.284;2023-03-23T03:41:33;15.30;96.30
18126;DHT22;53956;52.442;13.284;2023-03-23T03:44:00;15.30;96.80
18126;DHT22;53956;52.442;13.284;2023-03-23T03:46:28;15.20;96.80
18126;DHT22;53956;52.442;13.284;2023-03-23T03:48:56;15.10;97.50
18126;DHT22;53956;52.442;13.284;2023-03-23T03:51:26;15.10;97.40
18126;DHT22;53956;52.442;13.284;2023-03-23T03:53:54;15.20;97.90
18126;DHT22;53956;52.442;13.284;2023-03-23T03:56:22;15.20;97.70
18126;DHT22;53956;52.442;13.284;2023-03-23T03:59:02;15.10;98.50
18126;DHT22;53956;52.442;13.284;2023-03-23T04:01:46;15.10;98.90
18126;DHT22;53956;52.442;13.284;2023-03-23T04:04:13;15.20;98.40
18126;DHT22;53956;52.442;13.284;2023-03-23T04:06:41;15.10;98.40
18126;DHT22;53956;52.442;13.284;2023-03-23T04:09:07;15.20;98.30
18126;DHT22;53956;52.442;13.284;2023-03-23T04:11:35;15.20;98.60
18126;DHT22;53956;52.442;13.284;2023-03-23T04:14:22;15.20;98.60
18126;DHT22;53956;52.442;13.284;2023-03-23T04:16:49;15.10;97.90
18126;DHT22;53956;52.442;13.284;2023-03-23T04:19:22;15.20;97.50
18126;DHT22;53956;52.442;13.284;2023-03-23T04:21:50;15.10;97.60
18126;DHT22;53956;52.442;13.284;2023-03-23T04:24:18;15.00;98.10
18126;DHT22;53956;52.442;13.284;2023-03-23T04:26:46;15.20;99.20
18126;DHT22;53956;52.442;13.284;2023-03-23T04:29:21;15.20;98.80
18126;DHT22;53956;52.442;13.284;2023-03-23T04:32:06;15.10;98.90
18126;DHT22;53956;52.442;13.284;2023-03-23T04:34:40;15.20;98.90
18126;DHT22;53956;52.442;13.284;2023-03-23T04:37:10;15.00;99.40
18126;DHT22;53956;52.442;13.284;2023-03-23T04:39:38;15.00;99.90
18126;DHT22;53956;52.442;13.284;2023-03-23T04:42:07;14.90;99.80
18126;DHT22;53956;52.442;13.284;2023-03-23T04:45:07;15.00;99.80
18126;DHT22;53956;52.442;13.284;2023-03-23T04:47:37;15.10;98.90
18126;DHT22;53956;52.442;13.284;2023-03-23T04:50:17;15.20;99.20
18126;DHT22;53956;52.442;13.284;2023-03-23T04:52:45;15.20;99.20
18126;DHT22;53956;52.442;13.284;2023-03-23T04:55:14;15.20;99.50
18126;DHT22;53956;52.442;13.284;2023-03-23T04:57:45;15.20;99.50
18126;DHT22;53956;52.442;13.284;2023-03-23T05:00:36;15.20;99.60
18126;DHT22;53956;52.442;13.284;2023-03-23T05:03:04;15.00;99.90
18126;DHT22;53956;52.442;13.284;2023-03-23T05:05:33;15.00;99.90
18126;DHT22;53956;52.442;13.284;2023-03-23T05:08:06;15.00;99.90
18126;DHT22;53956;52.442;13.284;2023-03-23T05:10:39;15.00;99.90
18126;DHT22;53956;52.442;13.284;2023-03-23T05:13:10;15.00;99.90
18126;DHT22;53956;52.442;13.284;2023-03-23T05:15:37;15.00;99.90
18126;DHT22;53956;52.442;13.284;2023-03-23T05:18:05;15.00;99.90
18126;DHT22;53956;52.442;13.284;2023-03-23T05:20:32;14.90;99.90
18126;DHT22;53956;52.442;13.284;2023-03-23T05:23:08;15.00;99.90
18126;DHT22;53956;52.442;13.284;2023-03-23T05:25:35;14.90;99.90
18126;DHT22;53956;52.442;13.284;2023-03-23T05:28:13;14.90;99.90
18126;DHT22;53956;52.442;13.284;2023-03-23T05:30:51;14.90;99.90
18126;DHT22;53956;52.442;13.284;2023-03-23T05:33:19;14.90;99.90
18126;DHT22;53956;52.442;13.284;2023-03-23T05:35:51;14.90;99.90
18126;DHT22;53956;52.442;13.284;2023-03-23T05:38:27;14.90;99.90
18126;DHT22;53956;52.442;13.284;2023-03-23T05:40:58;14.90;99.90
18126;DHT22;53956;52.442;13.284;2023-03-23T05:43:30;14.90;99.90
18126;DHT22;53956;52.442;13.284;2023-03-23T05:46:12;14.80;99.90
18126;DHT22;53956;52.442;13.284;2023-03-23T05:48:40;14.80;99.90
18126;DHT22;53956;52.442;13.284;2023-03-23T05:51:12;14.90;99.90
18126;DHT22;53956;52.442;13.284;2023-03-23T05:53:43;14.90;99.90
18126;DHT22;53956;52.442;13.284;2023-03-23T05:56:13;14.80;99.90
18126;DHT22;53956;52.442;13.284;2023-03-23T05:58:54;14.70;99.90
18126;DHT22;53956;52.442;13.284;2023-03-23T06:01:21;14.50;99.90
18126;DHT22;53956;52.442;13.284;2023-03-23T06:03:49;14.50;99.90
18126;DHT22;53956;52.442;13.284;2023-03-23T06:06:24;14.60;99.90
18126;DHT22;53956;52.442;13.284;2023-03-23T06:08:57;14.50;99.90
18126;DHT22;53956;52.442;13.284;2023-03-23T06:11:44;14.50;99.90
18126;DHT22;53956;52.442;13.284;2023-03-23T06:14:34;14.40;99.90
18126;DHT22;53956;52.442;13.284;2023-03-23T06:17:01;14.50;99.90
18126;DHT22;53956;52.442;13.284;2023-03-23T06:19:28;14.50;99.90
18126;DHT22;53956;52.442;13.284;2023-03-23T06:22:03;14.40;99.90
18126;DHT22;53956;52.442;13.284;2023-03-23T06:24:51;14.50;99.90
18126;DHT22;53956;52.442;13.284;2023-03-23T06:27:23;14.40;99.90
18126;DHT22;53956;52.442;13.284;2023-03-23T06:29:50;14.30;99.90
18126;DHT22;53956;52.442;13.284;2023-03-23T06:32:19;14.30;99.90
18126;DHT22;53956;52.442;13.284;2023-03-23T06:34:46;14.30;99.90
18126;DHT22;53956;52.442;13.284;2023-03-23T06:37:47;14.40;99.90
18126;DHT22;53956;52.442;13.284;2023-03-23T06:40:25;14.40;99.90
18126;DHT22;53956;52.442;13.284;2023-03-23T06:42:56;14.40;99.90
18126;DHT22;53956;52.442;13.284;2023-03-23T06:45:43;14.50;99.90
18126;DHT22;53956;52.442;13.284;2023-03-23T06:48:28;14.50;99.90
18126;DHT22;53956;52.442;13.284;2023-03-23T06:50:54;14.50;99.90
18126;DHT22;53956;52.442;13.284;2023-03-23T06:53:24;14.60;99.90
18126;DHT22;53956;52.442;13.284;2023-03-23T06:55:56;14.60;99.90
18126;DHT22;53956;52.442;13.284;2023-03-23T06:58:23;14.60;99.90
18126;DHT22;53956;52.442;13.284;2023-03-23T07:00:53;14.60;99.90
18126;DHT22;53956;52.442;13.284;2023-03-23T07:03:23;14.60;99.90
18126;DHT22;53956;52.442;13.284;2023-03-23T07:05:49;14.60;99.90
18126;DHT22;53956;52.442;13.284;2023-03-23T07:08:19;14.60;99.90
18126;DHT22;53956;52.442;13.284;2023-03-23T07:10:51;14.60;99.90
18126;DHT22;53956;52.442;13.284;2023-03-23T07:13:23;14.50;99.90
18126;DHT22;53956;52.442;13.284;2023-03-23T07:15:54;14.50;99.90
18126;DHT22;53956;52.442;13.284;2023-03-23T07:18:21;14.50;99.90
18126;DHT22;53956;52.442;13.284;2023-03-23T07:20:51;14.50;99.90
18126;DHT22;53956;52.442;13.284;2023-03-23T07:23:20;14.30;99.90
18126;DHT22;53956;52.442;13.284;2023-03-23T07:26:00;14.40;99.90
18126;DHT22;53956;52.442;13.284;2023-03-23T07:28:36;14.50;99.90
18126;DHT22;53956;52.442;13.284;2023-03-23T07:31:14;14.40;99.90
18126;DHT22;53956;52.442;13.284;2023-03-23T07:33:41;14.40;99.90
18126;DHT22;53956;52.442;13.284;2023-03-23T07:36:10;14.60;99.90
18126;DHT22;53956;52.442;13.284;2023-03-23T07:38:37;14.50;99.90
18126;DHT22;53956;52.442;13.284;2023-03-23T07:41:05;14.60;99.90
18126;DHT22;53956;52.442;13.284;2023-03-23T07:43:32;14.50;99.90
18126;DHT22;53956;52.442;13.284;2023-03-23T07:46:20;14.40;99.90
18126;DHT22;53956;52.442;13.284;2023-03-23T07:48:58;14.30;99.90
18126;DHT22;53956;52.442;13.284;2023-03-23T07:51:33;14.40;99.90
18126;DHT22;53956;52.442;13.284;2023-03-23T07:54:00;14.40;99.90
18126;DHT22;53956;52.442;13.284;2023-03-23T07:56:47;14.40;99.90
18126;DHT22;53956;52.442;13.284;2023-03-23T07:59:24;14.20;99.90
18126;DHT22;53956;52.442;13.284;2023-03-23T08:01:52;14.50;99.90
18126;DHT22;53956;52.442;13.284;2023-03-23T08:04:42;14.50;99.90
18126;DHT22;53956;52.442;13.284;2023-03-23T08:07:23;14.60;99.90
18126;DHT22;53956;52.442;13.284;2023-03-23T08:09:56;14.50;99.90
18126;DHT22;53956;52.442;13.284;2023-03-23T08:12:23;14.50;99.90
18126;DHT22;53956;52.442;13.284;2023-03-23T08:15:06;14.60;99.90
18126;DHT22;53956;52.442;13.284;2023-03-23T08:17:52;14.60;99.90
18126;DHT22;53956;52.442;13.284;2023-03-23T08:20:42;14.70;99.90
18126;DHT22;53956;52.442;13.284;2023-03-23T08:23:24;14.70;99.90
18126;DHT22;53956;52.442;13.284;2023-03-23T08:26:12;14.70;99.90
18126;DHT22;53956;52.442;13.284;2023-03-23T08:28:50;14.60;99.90
18126;DHT22;53956;52.442;13.284;2023-03-23T08:31:38;14.80;99.90
18126;DHT22;53956;52.442;13.284;2023-03-23T08:34:30;14.70;99.90
18126;DHT22;53956;52.442;13.284;2023-03-23T08:36:58;14.80;99.90
18126;DHT22;53956;52.442;13.284;2023-03-23T08:39:33;14.80;99.90
18126;DHT22;53956;52.442;13.284;2023-03-23T08:42:14;14.80;99.90
18126;DHT22;53956;52.442;13.284;2023-03-23T08:45:00;14.70;99.90
18126;DHT22;53956;52.442;13.284;2023-03-23T08:47:38;14.60;99.90
18126;DHT22;53956;52.442;13.284;2023-03-23T08:50:15;14.60;99.90
18126;DHT22;53956;52.442;13.284;2023-03-23T08:53:15;14.80;99.90
18126;DHT22;53956;52.442;13.284;2023-03-23T08:56:07;14.80;99.90
18126;DHT22;53956;52.442;13.284;2023-03-23T08:59:01;14.90;99.90
18126;DHT22;53956;52.442;13.284;2023-03-23T09:01:36;14.90;99.90
18126;DHT22;53956;52.442;13.284;2023-03-23T09:04:16;15.00;99.90
18126;DHT22;53956;52.442;13.284;2023-03-23T09:06:56;15.30;99.90
18126;DHT22;53956;52.442;13.284;2023-03-23T09:09:23;15.30;99.90
18126;DHT22;53956;52.442;13.284;2023-03-23T09:11:50;15.10;99.90
18126;DHT22;53956;52.442;13.284;2023-03-23T09:14:17;15.20;99.90
18126;DHT22;53956;52.442;13.284;2023-03-23T09:16:43;15.20;99.90
18126;DHT22;53956;52.442;13.284;2023-03-23T09:19:10;15.20;99.90
18126;DHT22;53956;52.442;13.284;2023-03-23T09:21:38;15.20;99.90
18126;DHT22;53956;52.442;13.284;2023-03-23T09:24:06;15.30;99.90
18126;DHT22;53956;52.442;13.284;2023-03-23T09:26:32;15.20;99.90
18126;DHT22;53956;52.442;13.284;2023-03-23T09:28:59;15.20;99.90
18126;DHT22;53956;52.442;13.284;2023-03-23T09:31:26;15.20;99.90
18126;DHT22;53956;52.442;13.284;2023-03-23T09:33:53;15.20;99.90
18126;DHT22;53956;52.442;13.284;2023-03-23T09:36:21;15.30;99.90
18126;DHT22;53956;52.442;13.284;2023-03-23T09:38:48;15.40;99.90
18126;DHT22;53956;52.442;13.284;2023-03-23T09:41:30;15.50;99.90
18126;DHT22;53956;52.442;13.284;2023-03-23T09:44:04;15.70;99.90
18126;DHT22;53956;52.442;13.284;2023-03-23T09:46:46;15.70;99.90
18126;DHT22;53956;52.442;13.284;2023-03-23T09:49:18;15.70;99.90
18126;DHT22;53956;52.442;13.284;2023-03-23T09:51:49;15.70;99.90
18126;DHT22;53956;52.442;13.284;2023-03-23T09:54:21;15.70;99.90
18126;DHT22;53956;52.442;13.284;2023-03-23T09:56:51;15.80;99.90
18126;DHT22;53956;52.442;13.284;2023-03-23T09:59:21;15.90;99.90
18126;DHT22;53956;52.442;13.284;2023-03-23T10:01:51;16.00;99.90
18126;DHT22;53956;52.442;13.284;2023-03-23T10:04:30;15.90;99.90
18126;DHT22;53956;52.442;13.284;2023-03-23T10:06:59;15.80;99.90
18126;DHT22;53956;52.442;13.284;2023-03-23T10:09:32;15.80;99.90
18126;DHT22;53956;52.442;13.284;2023-03-23T10:12:07;15.80;99.90
18126;DHT22;53956;52.442;13.284;2023-03-23T10:15:01;15.80;99.90
18126;DHT22;53956;52.442;13.284;2023-03-23T10:17:33;15.70;99.90
18126;DHT22;53956;52.442;13.284;2023-03-23T10:20:18;15.80;99.90
18126;DHT22;53956;52.442;13.284;2023-03-23T10:23:00;15.70;99.90
18126;DHT22;53956;52.442;13.284;2023-03-23T10:25:29;15.80;99.90
18126;DHT22;53956;52.442;13.284;2023-03-23T10:28:04;15.80;99.90
18126;DHT22;53956;52.442;13.284;2023-03-23T10:30:36;15.80;99.90
18126;DHT22;53956;52.442;13.284;2023-03-23T10:33:10;15.90;99.90
18126;DHT22;53956;52.442;13.284;2023-03-23T10:35:43;15.90;99.90
18126;DHT22;53956;52.442;13.284;2023-03-23T10:38:14;16.00;99.90
18126;DHT22;53956;52.442;13.284;2023-03-23T10:40:48;16.10;99.90
18126;DHT22;53956;52.442;13.284;2023-03-23T10:43:17;16.10;99.90
18126;DHT22;53956;52.442;13.284;2023-03-23T10:45:47;16.10;99.90
18126;DHT22;53956;52.442;13.284;2023-03-23T10:48:18;16.00;99.90
18126;DHT22;53956;52.442;13.284;2023-03-23T10:50:50;16.00;99.90
18126;DHT22;53956;52.442;13.284;2023-03-23T10:53:21;15.90;99.90
18126;DHT22;53956;52.442;13.284;2023-03-23T10:55:49;16.00;99.90
18126;DHT22;53956;52.442;13.284;2023-03-23T10:58:25;16.00;99.90
18126;DHT22;53956;52.442;13.284;2023-03-23T11:00:54;16.00;99.90
18126;DHT22;53956;52.442;13.284;2023-03-23T11:03:25;16.00;99.90
18126;DHT22;53956;52.442;13.284;2023-03-23T11:05:56;16.10;99.90
18126;DHT22;53956;52.442;13.284;2023-03-23T11:08:25;16.10;99.90
18126;DHT22;53956;52.442;13.284;2023-03-23T11:10:53;16.00;99.90
18126;DHT22;53956;52.442;13.284;2023-03-23T11:13:27;16.00;99.90
18126;DHT22;53956;52.442;13.284;2023-03-23T11:15:54;16.00;99.90
18126;DHT22;53956;52.442;13.284;2023-03-23T11:18:23;16.00;99.90
18126;DHT22;53956;52.442;13.284;2023-03-23T11:20:54;16.10;99.90
18126;DHT22;53956;52.442;13.284;2023-03-23T11:23:24;16.00;99.90
18126;DHT22;53956;52.442;13.284;2023-03-23T11:25:55;16.00;99.90
18126;DHT22;53956;52.442;13.284;2023-03-23T11:28:27;16.10;99.90
18126;DHT22;53956;52.442;13.284;2023-03-23T11:30:57;16.10;99.90
18126;DHT22;53956;52.442;13.284;2023-03-23T11:33:25;16.10;99.90
18126;DHT22;53956;52.442;13.284;2023-03-23T11:35:55;16.20;99.90
18126;DHT22;53956;52.442;13.284;2023-03-23T11:38:23;16.20;99.90
18126;DHT22;53956;52.442;13.284;2023-03-23T11:40:53;16.40;99.90
18126;DHT22;53956;52.442;13.284;2023-03-23T11:43:23;16.40;99.90
18126;DHT22;53956;52.442;13.284;2023-03-23T11:45:58;16.40;99.90
18126;DHT22;53956;52.442;13.284;2023-03-23T11:48:33;16.40;99.90
18126;DHT22;53956;52.442;13.284;2023-03-23T11:51:04;16.40;99.90
18126;DHT22;53956;52.442;13.284;2023-03-23T11:53:41;16.40;99.90
18126;DHT22;53956;52.442;13.284;2023-03-23T11:56:14;16.40;99.90
18126;DHT22;53956;52.442;13.284;2023-03-23T11:58:44;16.60;99.90
18126;DHT22;53956;52.442;13.284;2023-03-23T12:01:20;16.50;99.90
18126;DHT22;53956;52.442;13.284;2023-03-23T12:03:58;16.60;99.90
18126;DHT22;53956;52.442;13.284;2023-03-23T12:06:35;16.60;99.90
18126;DHT22;53956;52.442;13.284;2023-03-23T12:09:10;16.60;99.30
18126;DHT22;53956;52.442;13.284;2023-03-23T12:11:49;16.70;99.60
18126;DHT22;53956;52.442;13.284;2023-03-23T12:14:24;16.70;99.20
18126;DHT22;53956;52.442;13.284;2023-03-23T12:17:03;16.80;99.30
18126;DHT22;53956;52.442;13.284;2023-03-23T12:19:38;16.80;99.10
18126;DHT22;53956;52.442;13.284;2023-03-23T12:22:18;16.80;98.30
18126;DHT22;53956;52.442;13.284;2023-03-23T12:24:59;16.80;98.50
18126;DHT22;53956;52.442;13.284;2023-03-23T12:27:35;16.80;97.80
18126;DHT22;53956;52.442;13.284;2023-03-23T12:30:23;16.80;98.20
18126;DHT22;53956;52.442;13.284;2023-03-23T12:33:02;16.70;97.00
18126;DHT22;53956;52.442;13.284;2023-03-23T12:35:37;16.70;97.10
18126;DHT22;53956;52.442;13.284;2023-03-23T12:38:20;16.70;96.50
18126;DHT22;53956;52.442;13.284;2023-03-23T12:41:02;16.70;97.10
18126;DHT22;53956;52.442;13.284;2023-03-23T12:43:36;16.70;97.70
18126;DHT22;53956;52.442;13.284;2023-03-23T12:46:31;16.70;97.00
18126;DHT22;53956;52.442;13.284;2023-03-23T12:49:03;16.70;97.00
18126;DHT22;53956;52.442;13.284;2023-03-23T12:51:34;16.80;96.70
18126;DHT22;53956;52.442;13.284;2023-03-23T12:54:08;16.80;96.20
18126;DHT22;53956;52.442;13.284;2023-03-23T12:56:39;16.90;95.60
18126;DHT22;53956;52.442;13.284;2023-03-23T12:59:12;16.90;96.30
18126;DHT22;53956;52.442;13.284;2023-03-23T13:01:46;17.00;96.00
18126;DHT22;53956;52.442;13.284;2023-03-23T13:04:17;17.00;95.80
18126;DHT22;53956;52.442;13.284;2023-03-23T13:06:47;17.00;95.30
18126;DHT22;53956;52.442;13.284;2023-03-23T13:09:17;17.20;95.00
18126;DHT22;53956;52.442;13.284;2023-03-23T13:11:47;17.20;95.10
18126;DHT22;53956;52.442;13.284;2023-03-23T13:14:40;17.30;94.60
18126;DHT22;53956;52.442;13.284;2023-03-23T13:17:20;17.50;94.70
18126;DHT22;53956;52.442;13.284;2023-03-23T13:20:15;17.50;93.40
18126;DHT22;53956;52.442;13.284;2023-03-23T13:22:49;17.40;93.00
18126;DHT22;53956;52.442;13.284;2023-03-23T13:25:19;17.60;93.00
18126;DHT22;53956;52.442;13.284;2023-03-23T13:27:57;17.40;92.80
18126;DHT22;53956;52.442;13.284;2023-03-23T13:30:24;17.60;92.10
18126;DHT22;53956;52.442;13.284;2023-03-23T13:33:02;17.60;91.40
18126;DHT22;53956;52.442;13.284;2023-03-23T13:35:34;17.70;91.50
18126;DHT22;53956;52.442;13.284;2023-03-23T13:38:01;17.70;91.10
18126;DHT22;53956;52.442;13.284;2023-03-23T13:40:42;17.70;90.30
18126;DHT22;53956;52.442;13.284;2023-03-23T13:43:09;17.60;89.80
18126;DHT22;53956;52.442;13.284;2023-03-23T13:45:43;17.70;90.30
18126;DHT22;53956;52.442;13.284;2023-03-23T13:48:21;17.70;90.00
18126;DHT22;53956;52.442;13.284;2023-03-23T13:50:56;17.50;90.30
18126;DHT22;53956;52.442;13.284;2023-03-23T13:53:26;17.80;90.60
18126;DHT22;53956;52.442;13.284;2023-03-23T13:56:07;18.00;89.80
18126;DHT22;53956;52.442;13.284;2023-03-23T13:58:47;18.10;89.00
18126;DHT22;53956;52.442;13.284;2023-03-23T14:01:16;18.00;87.40
18126;DHT22;53956;52.442;13.284;2023-03-23T14:03:48;18.00;87.00
18126;DHT22;53956;52.442;13.284;2023-03-23T14:06:18;18.10;86.90
18126;DHT22;53956;52.442;13.284;2023-03-23T14:09:06;18.00;87.60
18126;DHT22;53956;52.442;13.284;2023-03-23T14:11:46;17.90;88.20
18126;DHT22;53956;52.442;13.284;2023-03-23T14:14:18;18.00;88.40
18126;DHT22;53956;52.442;13.284;2023-03-23T14:16:49;17.90;88.30
18126;DHT22;53956;52.442;13.284;2023-03-23T14:19:22;17.70;88.00
18126;DHT22;53956;52.442;13.284;2023-03-23T14:21:52;17.60;88.30
18126;DHT22;53956;52.442;13.284;2023-03-23T14:24:21;17.50;88.80
18126;DHT22;53956;52.442;13.284;2023-03-23T14:26:49;17.40;88.70
18126;DHT22;53956;52.442;13.284;2023-03-23T14:29:19;17.40;88.70
18126;DHT22;53956;52.442;13.284;2023-03-23T14:31:50;17.50;89.50
18126;DHT22;53956;52.442;13.284;2023-03-23T14:34:22;17.30;89.60
18126;DHT22;53956;52.442;13.284;2023-03-23T14:36:50;17.30;89.30
18126;DHT22;53956;52.442;13.284;2023-03-23T14:39:21;17.30;89.90
18126;DHT22;53956;52.442;13.284;2023-03-23T14:41:48;17.30;90.40
18126;DHT22;53956;52.442;13.284;2023-03-23T14:44:20;17.30;90.60
18126;DHT22;53956;52.442;13.284;2023-03-23T14:46:48;17.30;92.20
18126;DHT22;53956;52.442;13.284;2023-03-23T14:49:17;17.20;93.00
18126;DHT22;53956;52.442;13.284;2023-03-23T14:51:52;17.10;92.70
18126;DHT22;53956;52.442;13.284;2023-03-23T14:54:22;17.10;93.40
18126;DHT22;53956;52.442;13.284;2023-03-23T14:56:49;17.20;94.00
18126;DHT22;53956;52.442;13.284;2023-03-23T14:59:16;17.30;93.70
18126;DHT22;53956;52.442;13.284;2023-03-23T15:01:44;17.40;94.70
18126;DHT22;53956;52.442;13.284;2023-03-23T15:04:15;17.30;94.40
18126;DHT22;53956;52.442;13.284;2023-03-23T15:06:44;17.30;93.80
18126;DHT22;53956;52.442;13.284;2023-03-23T15:09:17;17.30;93.60
18126;DHT22;53956;52.442;13.284;2023-03-23T15:11:52;17.40;93.30
18126;DHT22;53956;52.442;13.284;2023-03-23T15:14:22;17.50;93.20
18126;DHT22;53956;52.442;13.284;2023-03-23T15:16:51;17.50;92.90
18126;DHT22;53956;52.442;13.284;2023-03-23T15:19:21;17.70;91.80
18126;DHT22;53956;52.442;13.284;2023-03-23T15:21:51;17.70;91.60
18126;DHT22;53956;52.442;13.284;2023-03-23T15:24:27;17.60;91.00
18126;DHT22;53956;52.442;13.284;2023-03-23T15:27:09;17.50;89.00
18126;DHT22;53956;52.442;13.284;2023-03-23T15:29:46;17.50;88.00
18126;DHT22;53956;52.442;13.284;2023-03-23T15:32:13;17.60;87.90
18126;DHT22;53956;52.442;13.284;2023-03-23T15:34:46;17.70;87.40
18126;DHT22;53956;52.442;13.284;2023-03-23T15:37:19;17.60;87.50
18126;DHT22;53956;52.442;13.284;2023-03-23T15:39:49;17.60;86.30
18126;DHT22;53956;52.442;13.284;2023-03-23T15:42:22;17.60;85.90
18126;DHT22;53956;52.442;13.284;2023-03-23T15:44:58;17.50;86.40
18126;DHT22;53956;52.442;13.284;2023-03-23T15:47:35;17.50;86.40
18126;DHT22;53956;52.442;13.284;2023-03-23T15:50:07;17.60;86.10
18126;DHT22;53956;52.442;13.284;2023-03-23T15:52:35;17.60;86.10